sensor_id;sensor_type;location;lat;lon;timestamp;P1;P2;P0
75812;PMS7003;64450;51.168;16.900;2022-11-15T00:02:14;35;30;17
75812;PMS7003;64450;51.168;16.900;2022-11-15T00:05:15;39;31;19
75812;PMS7003;64450;51.168;16.900;2022-11-15T00:08:16;35;31;16
75812;PMS7003;64450;51.168;16.900;2022-11-15T00:11:17;26;24;17
75812;PMS7003;64450;51.168;16.900;2022-11-15T00:14:25;32;29;19
75812;PMS7003;64450;51.168;16.900;2022-11-15T00:17:25;39;28;16
75812;PMS7003;64450;51.168;16.900;2022-11-15T00:20:26;33;27;16
75812;PMS7003;64450;51.168;16.900;2022-11-15T00:23:27;34;24;17
75812;PMS7003;64450;51.168;16.900;2022-11-15T00:26:28;25;21;13
75812;PMS7003;64450;51.168;16.900;2022-11-15T00:29:28;37;29;18
75812;PMS7003;64450;51.168;16.900;2022-11-15T00:32:32;36;29;19
75812;PMS7003;64450;51.168;16.900;2022-11-15T00:35:40;31;26;18
75812;PMS7003;64450;51.168;16.900;2022-11-15T00:38:41;28;23;14
75812;PMS7003;64450;51.168;16.900;2022-11-15T00:41:42;29;26;16
75812;PMS7003;64450;51.168;16.900;2022-11-15T00:44:43;35;26;14
75812;PMS7003;64450;51.168;16.900;2022-11-15T00:47:44;46;31;20
75812;PMS7003;64450;51.168;16.900;2022-11-15T00:50:46;43;33;19
75812;PMS7003;64450;51.168;16.900;2022-11-15T00:53:47;57;43;26
75812;PMS7003;64450;51.168;16.900;2022-11-15T00:56:56;47;33;18
75812;PMS7003;64450;51.168;16.900;2022-11-15T00:59:57;37;29;16
75812;PMS7003;64450;51.168;16.900;2022-11-15T01:02:57;28;25;15
75812;PMS7003;64450;51.168;16.900;2022-11-15T01:05:59;22;20;14
75812;PMS7003;64450;51.168;16.900;2022-11-15T01:09:00;35;28;17
75812;PMS7003;64450;51.168;16.900;2022-11-15T01:12:01;41;30;18
75812;PMS7003;64450;51.168;16.900;2022-11-15T01:15:02;22;19;8
75812;PMS7003;64450;51.168;16.900;2022-11-15T01:18:12;32;25;14
75812;PMS7003;64450;51.168;16.900;2022-11-15T01:21:13;36;30;17
75812;PMS7003;64450;51.168;16.900;2022-11-15T01:24:16;45;34;20
75812;PMS7003;64450;51.168;16.900;2022-11-15T01:27:17;42;33;20
75812;PMS7003;64450;51.168;16.900;2022-11-15T01:30:18;36;26;19
75812;PMS7003;64450;51.168;16.900;2022-11-15T01:33:19;29;25;17
75812;PMS7003;64450;51.168;16.900;2022-11-15T01:36:20;35;26;16
75812;PMS7003;64450;51.168;16.900;2022-11-15T01:39:27;25;23;15
75812;PMS7003;64450;51.168;16.900;2022-11-15T01:42:28;29;26;13
75812;PMS7003;64450;51.168;16.900;2022-11-15T01:45:29;33;25;13
75812;PMS7003;64450;51.168;16.900;2022-11-15T01:48:32;31;23;15
75812;PMS7003;64450;51.168;16.900;2022-11-15T01:51:34;32;28;16
75812;PMS7003;64450;51.168;16.900;2022-11-15T01:54:35;36;31;17
75812;PMS7003;64450;51.168;16.900;2022-11-15T01:57:37;30;21;14
75812;PMS7003;64450;51.168;16.900;2022-11-15T02:00:43;32;25;15
75812;PMS7003;64450;51.168;16.900;2022-11-15T02:03:53;26;23;15
75812;PMS7003;64450;51.168;16.900;2022-11-15T02:06:57;34;30;20
75812;PMS7003;64450;51.168;16.900;2022-11-15T02:10:11;32;24;15
75812;PMS7003;64450;51.168;16.900;2022-11-15T02:13:18;28;25;16
75812;PMS7003;64450;51.168;16.900;2022-11-15T02:29:20;33;23;13
75812;PMS7003;64450;51.168;16.900;2022-11-15T02:35:43;40;32;19
75812;PMS7003;64450;51.168;16.900;2022-11-15T02:42:03;33;24;14
75812;PMS7003;64450;51.168;16.900;2022-11-15T02:45:19;31;23;15
75812;PMS7003;64450;51.168;16.900;2022-11-15T02:48:26;27;21;13
75812;PMS7003;64450;51.168;16.900;2022-11-15T02:51:28;21;18;9
75812;PMS7003;64450;51.168;16.900;2022-11-15T02:54:30;25;22;14
75812;PMS7003;64450;51.168;16.900;2022-11-15T03:04:02;29;21;13
75812;PMS7003;64450;51.168;16.900;2022-11-15T03:20:03;41;28;17
75812;PMS7003;64450;51.168;16.900;2022-11-15T03:23:08;30;25;13
75812;PMS7003;64450;51.168;16.900;2022-11-15T03:26:11;28;22;13
75812;PMS7003;64450;51.168;16.900;2022-11-15T03:29:17;36;28;17
75812;PMS7003;64450;51.168;16.900;2022-11-15T03:32:23;31;27;18
75812;PMS7003;64450;51.168;16.900;2022-11-15T03:35:29;37;26;17
75812;PMS7003;64450;51.168;16.900;2022-11-15T03:38:35;28;24;14
75812;PMS7003;64450;51.168;16.900;2022-11-15T03:44:58;56;42;25
75812;PMS7003;64450;51.168;16.900;2022-11-15T03:48:09;32;25;18
75812;PMS7003;64450;51.168;16.900;2022-11-15T03:51:14;23;20;13
75812;PMS7003;64450;51.168;16.900;2022-11-15T03:54:16;40;32;17
75812;PMS7003;64450;51.168;16.900;2022-11-15T03:57:27;26;23;14
75812;PMS7003;64450;51.168;16.900;2022-11-15T04:00:28;25;23;14
75812;PMS7003;64450;51.168;16.900;2022-11-15T04:03:29;31;24;14
75812;PMS7003;64450;51.168;16.900;2022-11-15T04:06:30;29;26;16
75812;PMS7003;64450;51.168;16.900;2022-11-15T04:09:31;27;23;14
75812;PMS7003;64450;51.168;16.900;2022-11-15T04:12:32;25;18;12
75812;PMS7003;64450;51.168;16.900;2022-11-15T04:15:35;27;26;15
75812;PMS7003;64450;51.168;16.900;2022-11-15T04:18:43;27;24;13
75812;PMS7003;64450;51.168;16.900;2022-11-15T04:21:43;38;27;17
75812;PMS7003;64450;51.168;16.900;2022-11-15T04:24:56;31;24;12
75812;PMS7003;64450;51.168;16.900;2022-11-15T04:27:57;27;19;12
75812;PMS7003;64450;51.168;16.900;2022-11-15T04:30:58;17;14;8
75812;PMS7003;64450;51.168;16.900;2022-11-15T04:34:04;24;19;14
75812;PMS7003;64450;51.168;16.900;2022-11-15T04:37:05;30;22;14
75812;PMS7003;64450;51.168;16.900;2022-11-15T04:40:11;25;19;11
75812;PMS7003;64450;51.168;16.900;2022-11-15T04:43:12;25;19;14
75812;PMS7003;64450;51.168;16.900;2022-11-15T04:46:13;37;23;14
75812;PMS7003;64450;51.168;16.900;2022-11-15T04:49:14;25;22;13
75812;PMS7003;64450;51.168;16.900;2022-11-15T04:52:15;34;26;14
75812;PMS7003;64450;51.168;16.900;2022-11-15T04:55:20;35;29;18
75812;PMS7003;64450;51.168;16.900;2022-11-15T04:58:21;36;27;14
75812;PMS7003;64450;51.168;16.900;2022-11-15T05:01:22;13;6;0
75812;PMS7003;64450;51.168;16.900;2022-11-15T05:04:23;25;21;14
75812;PMS7003;64450;51.168;16.900;2022-11-15T05:07:23;24;22;10
75812;PMS7003;64450;51.168;16.900;2022-11-15T05:10:24;35;29;19
75812;PMS7003;64450;51.168;16.900;2022-11-15T05:13:25;37;26;17
75812;PMS7003;64450;51.168;16.900;2022-11-15T05:16:36;29;24;16
75812;PMS7003;64450;51.168;16.900;2022-11-15T05:19:37;39;28;16
75812;PMS7003;64450;51.168;16.900;2022-11-15T05:22:38;27;23;13
75812;PMS7003;64450;51.168;16.900;2022-11-15T05:25:39;20;18;12
75812;PMS7003;64450;51.168;16.900;2022-11-15T05:28:40;41;31;18
75812;PMS7003;64450;51.168;16.900;2022-11-15T05:31:41;28;23;16
75812;PMS7003;64450;51.168;16.900;2022-11-15T05:34:42;28;21;13
75812;PMS7003;64450;51.168;16.900;2022-11-15T05:37:51;28;24;16
75812;PMS7003;64450;51.168;16.900;2022-11-15T05:40:52;30;24;16
75812;PMS7003;64450;51.168;16.900;2022-11-15T05:43:54;22;21;13
75812;PMS7003;64450;51.168;16.900;2022-11-15T05:46:55;32;28;17
75812;PMS7003;64450;51.168;16.900;2022-11-15T05:49:57;38;31;19
75812;PMS7003;64450;51.168;16.900;2022-11-15T05:52:58;36;29;19
75812;PMS7003;64450;51.168;16.900;2022-11-15T05:56:02;27;25;18
75812;PMS7003;64450;51.168;16.900;2022-11-15T05:59:07;22;17;9
75812;PMS7003;64450;51.168;16.900;2022-11-15T06:02:10;24;22;14
75812;PMS7003;64450;51.168;16.900;2022-11-15T06:05:11;33;28;18
75812;PMS7003;64450;51.168;16.900;2022-11-15T06:08:12;31;25;15
75812;PMS7003;64450;51.168;16.900;2022-11-15T06:11:13;20;16;13
75812;PMS7003;64450;51.168;16.900;2022-11-15T06:14:13;33;21;12
75812;PMS7003;64450;51.168;16.900;2022-11-15T06:17:14;33;27;15
75812;PMS7003;64450;51.168;16.900;2022-11-15T06:20:23;27;27;18
75812;PMS7003;64450;51.168;16.900;2022-11-15T06:23:26;35;27;16
75812;PMS7003;64450;51.168;16.900;2022-11-15T06:26:27;19;15;11
75812;PMS7003;64450;51.168;16.900;2022-11-15T06:29:28;23;18;14
75812;PMS7003;64450;51.168;16.900;2022-11-15T06:32:29;40;30;18
75812;PMS7003;64450;51.168;16.900;2022-11-15T06:35:32;42;30;19
75812;PMS7003;64450;51.168;16.900;2022-11-15T06:38:35;41;30;20
75812;PMS7003;64450;51.168;16.900;2022-11-15T06:41:40;28;23;15
75812;PMS7003;64450;51.168;16.900;2022-11-15T06:44:41;27;21;12
75812;PMS7003;64450;51.168;16.900;2022-11-15T06:47:45;23;22;17
75812;PMS7003;64450;51.168;16.900;2022-11-15T06:50:53;27;23;17
75812;PMS7003;64450;51.168;16.900;2022-11-15T06:53:55;31;21;14
75812;PMS7003;64450;51.168;16.900;2022-11-15T06:57:01;38;26;16
75812;PMS7003;64450;51.168;16.900;2022-11-15T07:00:05;46;35;21
75812;PMS7003;64450;51.168;16.900;2022-11-15T07:03:06;46;36;22
75812;PMS7003;64450;51.168;16.900;2022-11-15T07:06:08;48;36;23
75812;PMS7003;64450;51.168;16.900;2022-11-15T07:09:10;20;15;7
75812;PMS7003;64450;51.168;16.900;2022-11-15T07:12:10;31;25;14
75812;PMS7003;64450;51.168;16.900;2022-11-15T07:15:11;7;0;0
75812;PMS7003;64450;51.168;16.900;2022-11-15T07:18:17;30;23;15
75812;PMS7003;64450;51.168;16.900;2022-11-15T07:21:18;30;22;15
75812;PMS7003;64450;51.168;16.900;2022-11-15T07:24:19;34;24;12
75812;PMS7003;64450;51.168;16.900;2022-11-15T07:27:19;34;22;16
75812;PMS7003;64450;51.168;16.900;2022-11-15T07:30:20;36;27;16
75812;PMS7003;64450;51.168;16.900;2022-11-15T07:33:21;58;40;23
75812;PMS7003;64450;51.168;16.900;2022-11-15T07:36:22;30;26;16
75812;PMS7003;64450;51.168;16.900;2022-11-15T07:39:33;31;27;20
75812;PMS7003;64450;51.168;16.900;2022-11-15T07:42:34;37;29;16
75812;PMS7003;64450;51.168;16.900;2022-11-15T07:45:47;27;22;12
75812;PMS7003;64450;51.168;16.900;2022-11-15T07:48:47;31;26;18
75812;PMS7003;64450;51.168;16.900;2022-11-15T07:51:48;25;21;13
75812;PMS7003;64450;51.168;16.900;2022-11-15T07:54:54;25;21;13
75812;PMS7003;64450;51.168;16.900;2022-11-15T08:01:04;24;20;13
75812;PMS7003;64450;51.168;16.900;2022-11-15T08:04:06;29;21;13
75812;PMS7003;64450;51.168;16.900;2022-11-15T08:07:07;29;25;15
75812;PMS7003;64450;51.168;16.900;2022-11-15T08:10:15;41;28;19
75812;PMS7003;64450;51.168;16.900;2022-11-15T08:13:20;37;31;18
75812;PMS7003;64450;51.168;16.900;2022-11-15T08:16:21;41;33;19
75812;PMS7003;64450;51.168;16.900;2022-11-15T08:19:22;30;23;16
75812;PMS7003;64450;51.168;16.900;2022-11-15T08:22:23;27;23;14
75812;PMS7003;64450;51.168;16.900;2022-11-15T08:25:24;28;26;16
75812;PMS7003;64450;51.168;16.900;2022-11-15T08:28:28;37;26;18
75812;PMS7003;64450;51.168;16.900;2022-11-15T08:31:34;34;30;16
75812;PMS7003;64450;51.168;16.900;2022-11-15T08:34:39;28;21;13
75812;PMS7003;64450;51.168;16.900;2022-11-15T08:37:40;45;35;22
75812;PMS7003;64450;51.168;16.900;2022-11-15T08:40:41;41;31;21
75812;PMS7003;64450;51.168;16.900;2022-11-15T08:43:42;37;26;18
75812;PMS7003;64450;51.168;16.900;2022-11-15T08:46:45;41;32;19
75812;PMS7003;64450;51.168;16.900;2022-11-15T08:49:46;39;30;18
75812;PMS7003;64450;51.168;16.900;2022-11-15T08:52:51;33;26;17
75812;PMS7003;64450;51.168;16.900;2022-11-15T08:55:52;28;25;17
75812;PMS7003;64450;51.168;16.900;2022-11-15T08:58:53;38;32;21
75812;PMS7003;64450;51.168;16.900;2022-11-15T09:01:53;49;39;22
75812;PMS7003;64450;51.168;16.900;2022-11-15T09:04:54;34;25;16
75812;PMS7003;64450;51.168;16.900;2022-11-15T09:07:55;27;24;16
75812;PMS7003;64450;51.168;16.900;2022-11-15T09:10:56;35;29;18
75812;PMS7003;64450;51.168;16.900;2022-11-15T09:14:07;39;29;20
75812;PMS7003;64450;51.168;16.900;2022-11-15T09:17:08;46;33;21
75812;PMS7003;64450;51.168;16.900;2022-11-15T09:20:09;36;32;19
75812;PMS7003;64450;51.168;16.900;2022-11-15T09:23:10;40;29;18
75812;PMS7003;64450;51.168;16.900;2022-11-15T09:26:12;39;34;22
75812;PMS7003;64450;51.168;16.900;2022-11-15T09:29:13;42;33;22
75812;PMS7003;64450;51.168;16.900;2022-11-15T09:32:14;43;34;20
75812;PMS7003;64450;51.168;16.900;2022-11-15T09:35:22;40;33;21
75812;PMS7003;64450;51.168;16.900;2022-11-15T09:38:23;40;28;19
75812;PMS7003;64450;51.168;16.900;2022-11-15T09:41:27;26;25;18
75812;PMS7003;64450;51.168;16.900;2022-11-15T09:44:41;38;32;18
75812;PMS7003;64450;51.168;16.900;2022-11-15T09:50:58;34;27;17
75812;PMS7003;64450;51.168;16.900;2022-11-15T09:57:15;42;31;19
75812;PMS7003;64450;51.168;16.900;2022-11-15T10:00:20;37;29;19
75812;PMS7003;64450;51.168;16.900;2022-11-15T10:03:30;42;36;21
75812;PMS7003;64450;51.168;16.900;2022-11-15T10:06:36;51;35;21
75812;PMS7003;64450;51.168;16.900;2022-11-15T10:09:47;35;30;20
75812;PMS7003;64450;51.168;16.900;2022-11-15T10:12:57;39;32;23
75812;PMS7003;64450;51.168;16.900;2022-11-15T10:19:22;32;25;17
75812;PMS7003;64450;51.168;16.900;2022-11-15T10:25:40;47;38;23
75812;PMS7003;64450;51.168;16.900;2022-11-15T10:28:45;41;33;20
75812;PMS7003;64450;51.168;16.900;2022-11-15T10:31:46;35;29;17
75812;PMS7003;64450;51.168;16.900;2022-11-15T10:34:49;40;33;24
75812;PMS7003;64450;51.168;16.900;2022-11-15T10:37:51;39;33;22
75812;PMS7003;64450;51.168;16.900;2022-11-15T10:40:52;36;25;17
75812;PMS7003;64450;51.168;16.900;2022-11-15T10:44:11;39;30;21
75812;PMS7003;64450;51.168;16.900;2022-11-15T10:50:32;34;31;22
75812;PMS7003;64450;51.168;16.900;2022-11-15T10:53:40;44;34;22
75812;PMS7003;64450;51.168;16.900;2022-11-15T10:56:48;42;35;21
75812;PMS7003;64450;51.168;16.900;2022-11-15T10:59:55;32;30;20
75812;PMS7003;64450;51.168;16.900;2022-11-15T11:03:05;40;32;19
75812;PMS7003;64450;51.168;16.900;2022-11-15T11:06:13;34;28;21
75812;PMS7003;64450;51.168;16.900;2022-11-15T11:12:31;44;35;21
75812;PMS7003;64450;51.168;16.900;2022-11-15T11:15:33;33;28;18
75812;PMS7003;64450;51.168;16.900;2022-11-15T11:18:37;24;19;13
75812;PMS7003;64450;51.168;16.900;2022-11-15T11:21:50;27;25;16
75812;PMS7003;64450;51.168;16.900;2022-11-15T11:25:03;39;30;18
75812;PMS7003;64450;51.168;16.900;2022-11-15T11:37:53;38;27;17
75812;PMS7003;64450;51.168;16.900;2022-11-15T11:41:05;36;28;18
75812;PMS7003;64450;51.168;16.900;2022-11-15T11:47:30;22;18;13
75812;PMS7003;64450;51.168;16.900;2022-11-15T11:50:36;23;21;14
75812;PMS7003;64450;51.168;16.900;2022-11-15T11:56:50;20;19;13
75812;PMS7003;64450;51.168;16.900;2022-11-15T11:59:57;32;28;16
75812;PMS7003;64450;51.168;16.900;2022-11-15T12:19:17;29;23;15
75812;PMS7003;64450;51.168;16.900;2022-11-15T12:22:23;23;21;13
75812;PMS7003;64450;51.168;16.900;2022-11-15T12:25:29;22;16;10
75812;PMS7003;64450;51.168;16.900;2022-11-15T12:28:50;21;20;11
75812;PMS7003;64450;51.168;16.900;2022-11-15T12:31:55;22;20;13
75812;PMS7003;64450;51.168;16.900;2022-11-15T12:35:00;26;21;13
75812;PMS7003;64450;51.168;16.900;2022-11-15T12:38:12;18;13;10
75812;PMS7003;64450;51.168;16.900;2022-11-15T12:41:18;18;14;10
75812;PMS7003;64450;51.168;16.900;2022-11-15T12:47:40;18;14;9
75812;PMS7003;64450;51.168;16.900;2022-11-15T12:53:54;16;12;9
75812;PMS7003;64450;51.168;16.900;2022-11-15T13:03:30;18;14;9
75812;PMS7003;64450;51.168;16.900;2022-11-15T13:06:42;13;9;6
75812;PMS7003;64450;51.168;16.900;2022-11-15T13:12:54;11;11;9
75812;PMS7003;64450;51.168;16.900;2022-11-15T13:16:02;16;12;9
75812;PMS7003;64450;51.168;16.900;2022-11-15T13:19:09;13;10;8
75812;PMS7003;64450;51.168;16.900;2022-11-15T13:22:11;16;12;7
75812;PMS7003;64450;51.168;16.900;2022-11-15T13:28:45;14;14;10
75812;PMS7003;64450;51.168;16.900;2022-11-15T13:31:51;31;28;18
75812;PMS7003;64450;51.168;16.900;2022-11-15T13:34:56;15;13;9
75812;PMS7003;64450;51.168;16.900;2022-11-15T13:38:03;14;8;6
75812;PMS7003;64450;51.168;16.900;2022-11-15T13:44:24;17;14;10
75812;PMS7003;64450;51.168;16.900;2022-11-15T13:47:30;14;14;8
75812;PMS7003;64450;51.168;16.900;2022-11-15T13:50:32;17;16;12
75812;PMS7003;64450;51.168;16.900;2022-11-15T13:53:37;20;12;9
75812;PMS7003;64450;51.168;16.900;2022-11-15T13:56:42;15;14;10
75812;PMS7003;64450;51.168;16.900;2022-11-15T14:06:16;14;13;10
75812;PMS7003;64450;51.168;16.900;2022-11-15T14:09:25;15;15;9
75812;PMS7003;64450;51.168;16.900;2022-11-15T14:12:34;12;12;9
75812;PMS7003;64450;51.168;16.900;2022-11-15T14:15:38;19;16;12
75812;PMS7003;64450;51.168;16.900;2022-11-15T14:18:47;14;12;9
75812;PMS7003;64450;51.168;16.900;2022-11-15T14:31:30;18;17;11
75812;PMS7003;64450;51.168;16.900;2022-11-15T14:34:34;18;11;9
75812;PMS7003;64450;51.168;16.900;2022-11-15T14:37:40;16;15;11
75812;PMS7003;64450;51.168;16.900;2022-11-15T14:40:41;21;20;14
75812;PMS7003;64450;51.168;16.900;2022-11-15T14:43:44;13;11;7
75812;PMS7003;64450;51.168;16.900;2022-11-15T14:46:44;13;12;8
75812;PMS7003;64450;51.168;16.900;2022-11-15T14:49:45;21;19;13
75812;PMS7003;64450;51.168;16.900;2022-11-15T14:52:47;20;17;10
75812;PMS7003;64450;51.168;16.900;2022-11-15T14:55:48;21;15;10
75812;PMS7003;64450;51.168;16.900;2022-11-15T14:58:55;17;16;10
75812;PMS7003;64450;51.168;16.900;2022-11-15T15:01:56;19;17;10
75812;PMS7003;64450;51.168;16.900;2022-11-15T15:04:59;18;16;12
75812;PMS7003;64450;51.168;16.900;2022-11-15T15:08:03;20;19;12
75812;PMS7003;64450;51.168;16.900;2022-11-15T15:14:16;20;18;11
75812;PMS7003;64450;51.168;16.900;2022-11-15T15:17:17;20;19;12
75812;PMS7003;64450;51.168;16.900;2022-11-15T15:20:18;23;18;13
75812;PMS7003;64450;51.168;16.900;2022-11-15T15:23:19;21;17;10
75812;PMS7003;64450;51.168;16.900;2022-11-15T15:26:21;17;16;11
75812;PMS7003;64450;51.168;16.900;2022-11-15T15:29:23;25;20;12
75812;PMS7003;64450;51.168;16.900;2022-11-15T15:32:23;23;19;12
75812;PMS7003;64450;51.168;16.900;2022-11-15T15:35:32;27;20;13
75812;PMS7003;64450;51.168;16.900;2022-11-15T15:38:35;43;37;22
75812;PMS7003;64450;51.168;16.900;2022-11-15T15:41:35;28;20;12
75812;PMS7003;64450;51.168;16.900;2022-11-15T15:44:36;23;19;13
75812;PMS7003;64450;51.168;16.900;2022-11-15T15:47:37;23;18;13
75812;PMS7003;64450;51.168;16.900;2022-11-15T15:50:39;26;25;14
75812;PMS7003;64450;51.168;16.900;2022-11-15T15:53:40;30;26;16
75812;PMS7003;64450;51.168;16.900;2022-11-15T15:56:47;37;33;21
75812;PMS7003;64450;51.168;16.900;2022-11-15T15:59:48;17;16;12
75812;PMS7003;64450;51.168;16.900;2022-11-15T16:02:49;23;21;15
75812;PMS7003;64450;51.168;16.900;2022-11-15T16:05:50;32;28;17
75812;PMS7003;64450;51.168;16.900;2022-11-15T16:08:51;28;26;14
75812;PMS7003;64450;51.168;16.900;2022-11-15T16:11:52;26;24;15
75812;PMS7003;64450;51.168;16.900;2022-11-15T16:14:52;21;21;14
75812;PMS7003;64450;51.168;16.900;2022-11-15T16:18:03;25;20;10
75812;PMS7003;64450;51.168;16.900;2022-11-15T16:21:05;21;19;12
75812;PMS7003;64450;51.168;16.900;2022-11-15T16:24:05;18;12;10
75812;PMS7003;64450;51.168;16.900;2022-11-15T16:27:11;15;15;11
75812;PMS7003;64450;51.168;16.900;2022-11-15T16:30:15;27;18;12
75812;PMS7003;64450;51.168;16.900;2022-11-15T16:33:24;22;19;11
75812;PMS7003;64450;51.168;16.900;2022-11-15T16:36:25;26;20;15
75812;PMS7003;64450;51.168;16.900;2022-11-15T16:39:27;45;30;18
75812;PMS7003;64450;51.168;16.900;2022-11-15T16:42:31;35;28;16
75812;PMS7003;64450;51.168;16.900;2022-11-15T16:45:33;26;20;14
75812;PMS7003;64450;51.168;16.900;2022-11-15T16:48:45;35;29;19
75812;PMS7003;64450;51.168;16.900;2022-11-15T16:51:47;28;25;15
75812;PMS7003;64450;51.168;16.900;2022-11-15T16:54:49;38;29;19
75812;PMS7003;64450;51.168;16.900;2022-11-15T16:57:49;28;23;14
75812;PMS7003;64450;51.168;16.900;2022-11-15T17:00:54;29;21;13
75812;PMS7003;64450;51.168;16.900;2022-11-15T17:04:08;30;26;15
75812;PMS7003;64450;51.168;16.900;2022-11-15T17:07:13;28;27;16
75812;PMS7003;64450;51.168;16.900;2022-11-15T17:10:14;24;24;17
75812;PMS7003;64450;51.168;16.900;2022-11-15T17:13:15;27;23;15
75812;PMS7003;64450;51.168;16.900;2022-11-15T17:16:16;23;17;10
75812;PMS7003;64450;51.168;16.900;2022-11-15T17:19:27;28;24;15
75812;PMS7003;64450;51.168;16.900;2022-11-15T17:22:28;29;23;15
75812;PMS7003;64450;51.168;16.900;2022-11-15T17:25:29;27;22;15
75812;PMS7003;64450;51.168;16.900;2022-11-15T17:28:30;28;24;14
75812;PMS7003;64450;51.168;16.900;2022-11-15T17:31:33;24;21;13
75812;PMS7003;64450;51.168;16.900;2022-11-15T17:34:37;32;25;16
75812;PMS7003;64450;51.168;16.900;2022-11-15T17:37:38;31;23;13
75812;PMS7003;64450;51.168;16.900;2022-11-15T17:40:43;57;41;25
75812;PMS7003;64450;51.168;16.900;2022-11-15T17:43:44;54;41;27
75812;PMS7003;64450;51.168;16.900;2022-11-15T17:46:46;50;30;20
75812;PMS7003;64450;51.168;16.900;2022-11-15T17:49:46;28;24;16
75812;PMS7003;64450;51.168;16.900;2022-11-15T17:52:47;31;26;17
75812;PMS7003;64450;51.168;16.900;2022-11-15T17:55:48;38;27;17
75812;PMS7003;64450;51.168;16.900;2022-11-15T17:58:50;33;27;19
75812;PMS7003;64450;51.168;16.900;2022-11-15T18:01:59;42;34;22
75812;PMS7003;64450;51.168;16.900;2022-11-15T18:04:59;44;34;22
75812;PMS7003;64450;51.168;16.900;2022-11-15T18:08:00;39;28;19
75812;PMS7003;64450;51.168;16.900;2022-11-15T18:14:14;31;27;14
75812;PMS7003;64450;51.168;16.900;2022-11-15T18:17:20;45;33;23
75812;PMS7003;64450;51.168;16.900;2022-11-15T18:20:21;48;36;21
75812;PMS7003;64450;51.168;16.900;2022-11-15T18:23:21;56;44;26
75812;PMS7003;64450;51.168;16.900;2022-11-15T18:26:22;48;37;24
75812;PMS7003;64450;51.168;16.900;2022-11-15T18:29:26;50;37;20
75812;PMS7003;64450;51.168;16.900;2022-11-15T18:32:28;54;42;25
75812;PMS7003;64450;51.168;16.900;2022-11-15T18:35:28;50;40;25
75812;PMS7003;64450;51.168;16.900;2022-11-15T18:38:36;56;44;26
75812;PMS7003;64450;51.168;16.900;2022-11-15T18:41:36;54;41;26
75812;PMS7003;64450;51.168;16.900;2022-11-15T18:44:37;52;38;27
75812;PMS7003;64450;51.168;16.900;2022-11-15T18:47:38;48;39;26
75812;PMS7003;64450;51.168;16.900;2022-11-15T18:50:39;49;33;19
75812;PMS7003;64450;51.168;16.900;2022-11-15T18:53:41;47;38;22
75812;PMS7003;64450;51.168;16.900;2022-11-15T18:56:42;51;35;20
75812;PMS7003;64450;51.168;16.900;2022-11-15T18:59:51;47;36;23
75812;PMS7003;64450;51.168;16.900;2022-11-15T19:02:52;44;35;23
75812;PMS7003;64450;51.168;16.900;2022-11-15T19:05:59;54;36;24
75812;PMS7003;64450;51.168;16.900;2022-11-15T19:09:01;44;36;22
75812;PMS7003;64450;51.168;16.900;2022-11-15T19:12:02;49;40;24
75812;PMS7003;64450;51.168;16.900;2022-11-15T19:15:12;66;48;30
75812;PMS7003;64450;51.168;16.900;2022-11-15T19:18:13;64;43;25
75812;PMS7003;64450;51.168;16.900;2022-11-15T19:21:15;50;40;26
75812;PMS7003;64450;51.168;16.900;2022-11-15T19:24:15;59;45;27
75812;PMS7003;64450;51.168;16.900;2022-11-15T19:27:16;19;9;0
75812;PMS7003;64450;51.168;16.900;2022-11-15T19:30:17;48;31;21
75812;PMS7003;64450;51.168;16.900;2022-11-15T19:33:18;53;39;23
75812;PMS7003;64450;51.168;16.900;2022-11-15T19:36:32;50;37;24
75812;PMS7003;64450;51.168;16.900;2022-11-15T19:39:34;59;44;28
75812;PMS7003;64450;51.168;16.900;2022-11-15T19:42:35;40;34;21
75812;PMS7003;64450;51.168;16.900;2022-11-15T19:45:36;38;32;22
75812;PMS7003;64450;51.168;16.900;2022-11-15T19:48:37;53;39;26
75812;PMS7003;64450;51.168;16.900;2022-11-15T19:51:39;58;43;27
75812;PMS7003;64450;51.168;16.900;2022-11-15T19:54:44;41;31;19
75812;PMS7003;64450;51.168;16.900;2022-11-15T19:57:49;50;39;23
75812;PMS7003;64450;51.168;16.900;2022-11-15T20:00:50;43;32;19
75812;PMS7003;64450;51.168;16.900;2022-11-15T20:03:51;53;42;27
75812;PMS7003;64450;51.168;16.900;2022-11-15T20:06:54;63;48;30
75812;PMS7003;64450;51.168;16.900;2022-11-15T20:09:54;56;41;26
75812;PMS7003;64450;51.168;16.900;2022-11-15T20:12:55;58;42;24
75812;PMS7003;64450;51.168;16.900;2022-11-15T20:15:56;62;47;27
75812;PMS7003;64450;51.168;16.900;2022-11-15T20:19:05;69;52;32
75812;PMS7003;64450;51.168;16.900;2022-11-15T20:22:08;53;41;24
75812;PMS7003;64450;51.168;16.900;2022-11-15T20:25:09;49;39;22
75812;PMS7003;64450;51.168;16.900;2022-11-15T20:28:12;53;37;23
75812;PMS7003;64450;51.168;16.900;2022-11-15T20:31:18;48;39;23
75812;PMS7003;64450;51.168;16.900;2022-11-15T20:34:26;49;36;24
75812;PMS7003;64450;51.168;16.900;2022-11-15T20:37:27;51;40;24
75812;PMS7003;64450;51.168;16.900;2022-11-15T20:40:28;54;42;26
75812;PMS7003;64450;51.168;16.900;2022-11-15T20:43:29;48;39;23
75812;PMS7003;64450;51.168;16.900;2022-11-15T20:46:30;51;41;24
75812;PMS7003;64450;51.168;16.900;2022-11-15T20:49:30;49;39;24
75812;PMS7003;64450;51.168;16.900;2022-11-15T20:52:31;61;44;25
75812;PMS7003;64450;51.168;16.900;2022-11-15T20:55:42;64;46;30
75812;PMS7003;64450;51.168;16.900;2022-11-15T20:58:47;59;44;28
75812;PMS7003;64450;51.168;16.900;2022-11-15T21:01:53;54;44;26
75812;PMS7003;64450;51.168;16.900;2022-11-15T21:04:54;54;43;27
75812;PMS7003;64450;51.168;16.900;2022-11-15T21:07:55;58;43;23
75812;PMS7003;64450;51.168;16.900;2022-11-15T21:11:03;58;43;26
75812;PMS7003;64450;51.168;16.900;2022-11-15T21:14:16;54;40;25
75812;PMS7003;64450;51.168;16.900;2022-11-15T21:17:17;48;39;25
75812;PMS7003;64450;51.168;16.900;2022-11-15T21:20:18;47;33;20
75812;PMS7003;64450;51.168;16.900;2022-11-15T21:23:18;56;40;24
75812;PMS7003;64450;51.168;16.900;2022-11-15T21:26:24;49;40;25
75812;PMS7003;64450;51.168;16.900;2022-11-15T21:29:25;46;38;25
75812;PMS7003;64450;51.168;16.900;2022-11-15T21:32:32;60;46;27
75812;PMS7003;64450;51.168;16.900;2022-11-15T21:35:33;45;37;24
75812;PMS7003;64450;51.168;16.900;2022-11-15T21:38:35;57;46;27
75812;PMS7003;64450;51.168;16.900;2022-11-15T21:41:45;59;41;26
75812;PMS7003;64450;51.168;16.900;2022-11-15T21:44:46;54;39;24